sensor_id;sensor_type;location;lat;lon;timestamp;P1;durP1;ratioP1;P2;durP2;ratioP2
42948;SDS011;28587;46.794;23.594;2022-11-20T00:01:40;5.82;;;5.03;;
42948;SDS011;28587;46.794;23.594;2022-11-20T00:06:41;5.55;;;5.05;;
42948;SDS011;28587;46.794;23.594;2022-11-20T00:11:41;5.40;;;4.90;;
42948;SDS011;28587;46.794;23.594;2022-11-20T00:16:42;5.47;;;4.97;;
42948;SDS011;28587;46.794;23.594;2022-11-20T00:21:43;6.72;;;5.53;;
42948;SDS011;28587;46.794;23.594;2022-11-20T00:26:53;5.60;;;4.93;;
42948;SDS011;28587;46.794;23.594;2022-11-20T00:31:54;5.10;;;4.70;;
42948;SDS011;28587;46.794;23.594;2022-11-20T00:36:55;5.50;;;5.00;;
42948;SDS011;28587;46.794;23.594;2022-11-20T00:41:56;5.20;;;4.75;;
42948;SDS011;28587;46.794;23.594;2022-11-20T00:46:57;5.35;;;4.85;;
42948;SDS011;28587;46.794;23.594;2022-11-20T00:51:58;5.13;;;4.63;;
42948;SDS011;28587;46.794;23.594;2022-11-20T00:56:59;5.13;;;4.63;;
42948;SDS011;28587;46.794;23.594;2022-11-20T01:02:00;5.40;;;4.90;;
42948;SDS011;28587;46.794;23.594;2022-11-20T01:07:02;4.88;;;4.47;;
42948;SDS011;28587;46.794;23.594;2022-11-20T01:12:03;5.32;;;4.82;;
42948;SDS011;28587;46.794;23.594;2022-11-20T01:17:04;5.35;;;4.40;;
42948;SDS011;28587;46.794;23.594;2022-11-20T01:22:05;5.95;;;4.55;;
42948;SDS011;28587;46.794;23.594;2022-11-20T01:27:07;5.10;;;4.60;;
42948;SDS011;28587;46.794;23.594;2022-11-20T01:32:07;4.78;;;4.38;;
42948;SDS011;28587;46.794;23.594;2022-11-20T01:37:08;5.35;;;4.85;;
42948;SDS011;28587;46.794;23.594;2022-11-20T01:42:09;5.05;;;4.63;;
42948;SDS011;28587;46.794;23.594;2022-11-20T01:52:41;4.80;;;4.40;;
42948;SDS011;28587;46.794;23.594;2022-11-20T01:57:51;4.95;;;4.50;;
42948;SDS011;28587;46.794;23.594;2022-11-20T02:03:03;4.72;;;4.32;;
42948;SDS011;28587;46.794;23.594;2022-11-20T02:08:09;5.03;;;4.47;;
42948;SDS011;28587;46.794;23.594;2022-11-20T02:13:10;5.00;;;4.50;;
42948;SDS011;28587;46.794;23.594;2022-11-20T02:18:30;5.18;;;4.75;;
42948;SDS011;28587;46.794;23.594;2022-11-20T02:23:51;4.90;;;4.50;;
42948;SDS011;28587;46.794;23.594;2022-11-20T02:28:58;5.35;;;4.85;;
42948;SDS011;28587;46.794;23.594;2022-11-20T02:34:00;4.57;;;4.18;;
42948;SDS011;28587;46.794;23.594;2022-11-20T02:39:02;5.10;;;4.60;;
42948;SDS011;28587;46.794;23.594;2022-11-20T02:44:04;4.43;;;4.03;;
42948;SDS011;28587;46.794;23.594;2022-11-20T02:49:05;4.82;;;4.32;;
42948;SDS011;28587;46.794;23.594;2022-11-20T02:54:06;5.28;;;4.50;;
42948;SDS011;28587;46.794;23.594;2022-11-20T02:59:07;5.20;;;4.70;;
42948;SDS011;28587;46.794;23.594;2022-11-20T03:04:08;4.95;;;4.55;;
42948;SDS011;28587;46.794;23.594;2022-11-20T03:09:09;4.65;;;4.25;;
42948;SDS011;28587;46.794;23.594;2022-11-20T03:14:10;5.07;;;4.57;;
42948;SDS011;28587;46.794;23.594;2022-11-20T03:19:14;4.80;;;4.40;;
42948;SDS011;28587;46.794;23.594;2022-11-20T03:24:15;4.90;;;4.40;;
42948;SDS011;28587;46.794;23.594;2022-11-20T03:29:16;5.35;;;4.38;;
42948;SDS011;28587;46.794;23.594;2022-11-20T03:34:17;4.47;;;4.07;;
42948;SDS011;28587;46.794;23.594;2022-11-20T03:39:18;4.78;;;4.38;;
42948;SDS011;28587;46.794;23.594;2022-11-20T03:44:20;4.45;;;4.05;;
42948;SDS011;28587;46.794;23.594;2022-11-20T03:49:21;4.60;;;4.20;;
42948;SDS011;28587;46.794;23.594;2022-11-20T03:54:22;4.53;;;4.07;;
42948;SDS011;28587;46.794;23.594;2022-11-20T03:59:23;4.35;;;3.92;;
42948;SDS011;28587;46.794;23.594;2022-11-20T04:04:24;5.50;;;4.32;;
42948;SDS011;28587;46.794;23.594;2022-11-20T04:09:25;4.93;;;4.43;;
42948;SDS011;28587;46.794;23.594;2022-11-20T04:14:26;5.30;;;4.80;;
42948;SDS011;28587;46.794;23.594;2022-11-20T04:19:27;5.40;;;4.90;;
42948;SDS011;28587;46.794;23.594;2022-11-20T04:24:28;4.35;;;3.95;;
42948;SDS011;28587;46.794;23.594;2022-11-20T04:29:29;4.60;;;4.20;;
42948;SDS011;28587;46.794;23.594;2022-11-20T04:34:29;4.50;;;4.10;;
42948;SDS011;28587;46.794;23.594;2022-11-20T04:39:30;4.88;;;4.38;;
42948;SDS011;28587;46.794;23.594;2022-11-20T04:44:31;4.90;;;4.50;;
42948;SDS011;28587;46.794;23.594;2022-11-20T04:49:32;4.57;;;4.10;;
42948;SDS011;28587;46.794;23.594;2022-11-20T04:54:34;5.72;;;4.20;;
42948;SDS011;28587;46.794;23.594;2022-11-20T04:59:35;4.40;;;4.00;;
42948;SDS011;28587;46.794;23.594;2022-11-20T05:04:35;5.10;;;4.07;;
42948;SDS011;28587;46.794;23.594;2022-11-20T05:09:37;4.00;;;3.70;;
42948;SDS011;28587;46.794;23.594;2022-11-20T05:14:38;4.38;;;3.97;;
42948;SDS011;28587;46.794;23.594;2022-11-20T05:19:38;4.18;;;3.78;;
42948;SDS011;28587;46.794;23.594;2022-11-20T05:24:39;3.53;;;3.22;;
42948;SDS011;28587;46.794;23.594;2022-11-20T05:29:40;4.07;;;3.65;;
42948;SDS011;28587;46.794;23.594;2022-11-20T05:34:42;4.00;;;3.50;;
42948;SDS011;28587;46.794;23.594;2022-11-20T05:39:42;4.97;;;3.70;;
42948;SDS011;28587;46.794;23.594;2022-11-20T05:44:43;3.92;;;3.63;;
42948;SDS011;28587;46.794;23.594;2022-11-20T05:49:44;4.55;;;4.15;;
42948;SDS011;28587;46.794;23.594;2022-11-20T05:54:45;4.20;;;3.80;;
42948;SDS011;28587;46.794;23.594;2022-11-20T05:59:46;4.22;;;3.45;;
42948;SDS011;28587;46.794;23.594;2022-11-20T06:04:47;3.92;;;3.63;;
42948;SDS011;28587;46.794;23.594;2022-11-20T06:09:48;3.97;;;3.67;;
42948;SDS011;28587;46.794;23.594;2022-11-20T06:14:49;3.75;;;3.35;;
42948;SDS011;28587;46.794;23.594;2022-11-20T06:20:35;3.38;;;3.08;;
42948;SDS011;28587;46.794;23.594;2022-11-20T06:25:14;4.28;;;3.65;;
42948;SDS011;28587;46.794;23.594;2022-11-20T06:30:16;3.67;;;3.38;;
42948;SDS011;28587;46.794;23.594;2022-11-20T06:35:19;3.92;;;3.53;;
42948;SDS011;28587;46.794;23.594;2022-11-20T06:40:20;3.38;;;3.08;;
42948;SDS011;28587;46.794;23.594;2022-11-20T06:45:21;3.75;;;3.45;;
42948;SDS011;28587;46.794;23.594;2022-11-20T06:50:22;3.92;;;3.63;;
42948;SDS011;28587;46.794;23.594;2022-11-20T06:55:23;4.90;;;3.88;;
42948;SDS011;28587;46.794;23.594;2022-11-20T07:00:24;4.32;;;4.03;;
42948;SDS011;28587;46.794;23.594;2022-11-20T07:05:26;5.45;;;3.95;;
42948;SDS011;28587;46.794;23.594;2022-11-20T07:10:26;6.18;;;3.88;;
42948;SDS011;28587;46.794;23.594;2022-11-20T07:15:28;4.00;;;3.60;;
42948;SDS011;28587;46.794;23.594;2022-11-20T07:20:29;6.80;;;3.60;;
42948;SDS011;28587;46.794;23.594;2022-11-20T07:25:30;5.82;;;4.00;;
42948;SDS011;28587;46.794;23.594;2022-11-20T07:30:31;5.70;;;5.13;;
42948;SDS011;28587;46.794;23.594;2022-11-20T07:35:32;5.35;;;4.93;;
42948;SDS011;28587;46.794;23.594;2022-11-20T07:40:33;6.28;;;5.07;;
42948;SDS011;28587;46.794;23.594;2022-11-20T07:45:34;6.45;;;5.13;;
42948;SDS011;28587;46.794;23.594;2022-11-20T07:50:35;5.80;;;5.30;;
42948;SDS011;28587;46.794;23.594;2022-11-20T07:55:36;6.70;;;4.90;;
42948;SDS011;28587;46.794;23.594;2022-11-20T08:00:36;7.82;;;4.70;;
42948;SDS011;28587;46.794;23.594;2022-11-20T08:05:37;5.80;;;5.07;;
42948;SDS011;28587;46.794;23.594;2022-11-20T08:10:38;9.05;;;4.78;;
42948;SDS011;28587;46.794;23.594;2022-11-20T08:15:39;5.15;;;4.65;;
42948;SDS011;28587;46.794;23.594;2022-11-20T08:20:40;5.95;;;4.93;;
42948;SDS011;28587;46.794;23.594;2022-11-20T08:25:42;5.43;;;4.22;;
42948;SDS011;28587;46.794;23.594;2022-11-20T08:30:42;5.00;;;4.40;;
42948;SDS011;28587;46.794;23.594;2022-11-20T08:35:43;8.93;;;4.63;;
42948;SDS011;28587;46.794;23.594;2022-11-20T08:40:44;5.57;;;4.38;;
42948;SDS011;28587;46.794;23.594;2022-11-20T08:46:05;6.07;;;4.63;;
42948;SDS011;28587;46.794;23.594;2022-11-20T08:51:06;4.68;;;3.95;;
42948;SDS011;28587;46.794;23.594;2022-11-20T08:56:07;4.57;;;4.15;;
42948;SDS011;28587;46.794;23.594;2022-11-20T09:01:10;4.60;;;4.20;;
42948;SDS011;28587;46.794;23.594;2022-11-20T09:06:11;4.53;;;3.92;;
42948;SDS011;28587;46.794;23.594;2022-11-20T09:11:12;8.43;;;4.40;;
42948;SDS011;28587;46.794;23.594;2022-11-20T09:16:13;6.07;;;4.60;;
42948;SDS011;28587;46.794;23.594;2022-11-20T09:21:14;7.43;;;4.60;;
42948;SDS011;28587;46.794;23.594;2022-11-20T09:26:15;5.53;;;4.60;;
42948;SDS011;28587;46.794;23.594;2022-11-20T09:31:22;8.88;;;4.80;;
42948;SDS011;28587;46.794;23.594;2022-11-20T09:36:24;9.52;;;4.80;;
42948;SDS011;28587;46.794;23.594;2022-11-20T09:46:58;7.75;;;4.65;;
42948;SDS011;28587;46.794;23.594;2022-11-20T09:52:20;6.18;;;4.45;;
42948;SDS011;28587;46.794;23.594;2022-11-20T09:57:39;6.30;;;4.60;;
42948;SDS011;28587;46.794;23.594;2022-11-20T10:08:13;9.05;;;4.78;;
42948;SDS011;28587;46.794;23.594;2022-11-20T10:29:28;6.72;;;4.10;;
42948;SDS011;28587;46.794;23.594;2022-11-20T10:34:37;9.70;;;4.43;;
42948;SDS011;28587;46.794;23.594;2022-11-20T10:39:54;8.18;;;3.95;;
42948;SDS011;28587;46.794;23.594;2022-11-20T10:45:32;6.78;;;3.90;;
42948;SDS011;28587;46.794;23.594;2022-11-20T10:56:10;6.45;;;4.00;;
42948;SDS011;28587;46.794;23.594;2022-11-20T11:01:18;5.55;;;3.92;;
42948;SDS011;28587;46.794;23.594;2022-11-20T11:06:29;6.57;;;3.80;;
42948;SDS011;28587;46.794;23.594;2022-11-20T11:12:05;6.47;;;4.25;;
42948;SDS011;28587;46.794;23.594;2022-11-20T11:17:17;3.65;;;3.35;;
42948;SDS011;28587;46.794;23.594;2022-11-20T11:22:28;5.57;;;4.40;;
42948;SDS011;28587;46.794;23.594;2022-11-20T11:27:31;7.10;;;3.55;;
42948;SDS011;28587;46.794;23.594;2022-11-20T11:32:32;5.57;;;3.83;;
42948;SDS011;28587;46.794;23.594;2022-11-20T11:37:36;4.30;;;3.25;;
42948;SDS011;28587;46.794;23.594;2022-11-20T11:42:42;5.65;;;3.58;;
42948;SDS011;28587;46.794;23.594;2022-11-20T11:47:46;4.75;;;3.88;;
42948;SDS011;28587;46.794;23.594;2022-11-20T11:52:51;5.30;;;3.95;;
42948;SDS011;28587;46.794;23.594;2022-11-20T11:58:09;4.55;;;3.47;;
42948;SDS011;28587;46.794;23.594;2022-11-20T12:09:04;3.28;;;2.97;;
42948;SDS011;28587;46.794;23.594;2022-11-20T12:14:16;4.25;;;3.50;;
42948;SDS011;28587;46.794;23.594;2022-11-20T12:19:24;6.00;;;3.55;;
42948;SDS011;28587;46.794;23.594;2022-11-20T12:29:51;6.20;;;3.70;;
42948;SDS011;28587;46.794;23.594;2022-11-20T12:46:47;3.63;;;3.33;;
42948;SDS011;28587;46.794;23.594;2022-11-20T12:52:10;3.97;;;3.03;;
42948;SDS011;28587;46.794;23.594;2022-11-20T12:57:35;3.25;;;2.95;;
42948;SDS011;28587;46.794;23.594;2022-11-20T13:08:08;3.63;;;3.13;;
42948;SDS011;28587;46.794;23.594;2022-11-20T13:18:50;19.95;;;6.38;;
42948;SDS011;28587;46.794;23.594;2022-11-20T13:23:51;16.05;;;5.65;;
42948;SDS011;28587;46.794;23.594;2022-11-20T13:29:00;18.33;;;6.28;;
42948;SDS011;28587;46.794;23.594;2022-11-20T13:34:14;8.75;;;3.70;;
42948;SDS011;28587;46.794;23.594;2022-11-20T13:39:28;8.43;;;3.90;;
42948;SDS011;28587;46.794;23.594;2022-11-20T13:44:36;9.05;;;4.35;;
42948;SDS011;28587;46.794;23.594;2022-11-20T13:49:39;7.53;;;3.70;;
42948;SDS011;28587;46.794;23.594;2022-11-20T14:00:17;7.93;;;3.47;;
42948;SDS011;28587;46.794;23.594;2022-11-20T14:05:21;7.57;;;3.97;;
42948;SDS011;28587;46.794;23.594;2022-11-20T14:10:24;10.75;;;3.70;;
42948;SDS011;28587;46.794;23.594;2022-11-20T14:15:33;6.80;;;3.53;;
42948;SDS011;28587;46.794;23.594;2022-11-20T14:20:35;4.55;;;3.05;;
42948;SDS011;28587;46.794;23.594;2022-11-20T14:25:41;9.23;;;3.50;;
42948;SDS011;28587;46.794;23.594;2022-11-20T14:30:43;5.78;;;3.20;;
42948;SDS011;28587;46.794;23.594;2022-11-20T14:35:48;5.53;;;3.75;;
42948;SDS011;28587;46.794;23.594;2022-11-20T14:40:51;7.82;;;3.75;;
42948;SDS011;28587;46.794;23.594;2022-11-20T14:45:56;8.75;;;3.40;;
42948;SDS011;28587;46.794;23.594;2022-11-20T14:51:00;7.90;;;3.40;;
42948;SDS011;28587;46.794;23.594;2022-11-20T14:56:01;8.38;;;3.85;;
42948;SDS011;28587;46.794;23.594;2022-11-20T15:01:04;6.80;;;3.72;;
42948;SDS011;28587;46.794;23.594;2022-11-20T15:06:07;6.07;;;3.50;;
42948;SDS011;28587;46.794;23.594;2022-11-20T15:11:18;7.95;;;3.30;;
42948;SDS011;28587;46.794;23.594;2022-11-20T15:16:21;6.25;;;2.80;;
42948;SDS011;28587;46.794;23.594;2022-11-20T15:21:24;5.57;;;3.17;;
42948;SDS011;28587;46.794;23.594;2022-11-20T15:26:26;6.50;;;3.22;;
42948;SDS011;28587;46.794;23.594;2022-11-20T15:31:28;6.85;;;3.45;;
42948;SDS011;28587;46.794;23.594;2022-11-20T15:36:29;6.32;;;3.88;;
42948;SDS011;28587;46.794;23.594;2022-11-20T15:41:30;5.43;;;4.47;;
42948;SDS011;28587;46.794;23.594;2022-11-20T15:46:31;8.00;;;5.20;;
42948;SDS011;28587;46.794;23.594;2022-11-20T15:51:39;12.27;;;5.55;;
42948;SDS011;28587;46.794;23.594;2022-11-20T15:56:43;7.05;;;4.93;;
42948;SDS011;28587;46.794;23.594;2022-11-20T16:01:44;7.28;;;5.60;;
42948;SDS011;28587;46.794;23.594;2022-11-20T16:06:45;8.80;;;5.10;;
42948;SDS011;28587;46.794;23.594;2022-11-20T16:11:46;9.32;;;5.13;;
42948;SDS011;28587;46.794;23.594;2022-11-20T16:16:46;21.33;;;19.23;;
42948;SDS011;28587;46.794;23.594;2022-11-20T16:21:47;8.25;;;5.68;;
42948;SDS011;28587;46.794;23.594;2022-11-20T16:26:48;8.38;;;5.78;;
42948;SDS011;28587;46.794;23.594;2022-11-20T16:31:49;8.18;;;5.82;;
42948;SDS011;28587;46.794;23.594;2022-11-20T16:36:53;8.65;;;5.63;;
42948;SDS011;28587;46.794;23.594;2022-11-20T16:41:54;11.38;;;6.00;;
42948;SDS011;28587;46.794;23.594;2022-11-20T16:46:55;6.93;;;6.10;;
42948;SDS011;28587;46.794;23.594;2022-11-20T16:51:57;10.02;;;5.80;;
42948;SDS011;28587;46.794;23.594;2022-11-20T16:56:58;9.60;;;5.88;;
42948;SDS011;28587;46.794;23.594;2022-11-20T17:01:59;13.25;;;6.85;;
42948;SDS011;28587;46.794;23.594;2022-11-20T17:07:00;10.60;;;5.72;;
42948;SDS011;28587;46.794;23.594;2022-11-20T17:12:02;10.60;;;5.72;;
42948;SDS011;28587;46.794;23.594;2022-11-20T17:17:02;11.93;;;5.20;;
42948;SDS011;28587;46.794;23.594;2022-11-20T17:22:03;7.20;;;5.78;;
42948;SDS011;28587;46.794;23.594;2022-11-20T17:27:04;8.00;;;5.72;;
42948;SDS011;28587;46.794;23.594;2022-11-20T17:32:05;6.22;;;4.78;;
42948;SDS011;28587;46.794;23.594;2022-11-20T17:37:06;6.95;;;5.38;;
42948;SDS011;28587;46.794;23.594;2022-11-20T17:42:07;8.25;;;5.47;;
42948;SDS011;28587;46.794;23.594;2022-11-20T17:47:26;6.03;;;4.80;;
42948;SDS011;28587;46.794;23.594;2022-11-20T17:52:26;7.07;;;5.82;;
42948;SDS011;28587;46.794;23.594;2022-11-20T17:57:27;7.57;;;5.20;;
42948;SDS011;28587;46.794;23.594;2022-11-20T18:02:49;6.57;;;5.18;;
42948;SDS011;28587;46.794;23.594;2022-11-20T18:07:53;8.15;;;5.60;;
42948;SDS011;28587;46.794;23.594;2022-11-20T18:12:56;6.68;;;5.45;;
42948;SDS011;28587;46.794;23.594;2022-11-20T18:17:56;7.05;;;4.68;;
42948;SDS011;28587;46.794;23.594;2022-11-20T18:22:57;9.25;;;4.97;;
42948;SDS011;28587;46.794;23.594;2022-11-20T18:27:59;7.95;;;5.45;;
42948;SDS011;28587;46.794;23.594;2022-11-20T18:32:59;7.88;;;5.28;;
42948;SDS011;28587;46.794;23.594;2022-11-20T18:38:00;6.82;;;5.43;;
42948;SDS011;28587;46.794;23.594;2022-11-20T18:43:01;6.40;;;4.72;;
42948;SDS011;28587;46.794;23.594;2022-11-20T18:48:21;6.10;;;5.00;;
42948;SDS011;28587;46.794;23.594;2022-11-20T18:53:22;7.32;;;4.95;;
42948;SDS011;28587;46.794;23.594;2022-11-20T18:58:23;7.10;;;4.95;;
42948;SDS011;28587;46.794;23.594;2022-11-20T19:03:25;7.90;;;4.93;;
42948;SDS011;28587;46.794;23.594;2022-11-20T19:08:26;15.82;;;7.20;;
42948;SDS011;28587;46.794;23.594;2022-11-20T19:13:27;15.27;;;6.72;;
42948;SDS011;28587;46.794;23.594;2022-11-20T19:18:36;9.85;;;5.88;;
42948;SDS011;28587;46.794;23.594;2022-11-20T19:23:37;9.23;;;6.05;;
42948;SDS011;28587;46.794;23.594;2022-11-20T19:28:38;9.90;;;5.75;;
42948;SDS011;28587;46.794;23.594;2022-11-20T19:33:39;15.20;;;6.07;;
42948;SDS011;28587;46.794;23.594;2022-11-20T19:38:41;10.45;;;5.18;;
42948;SDS011;28587;46.794;23.594;2022-11-20T19:43:43;8.10;;;4.82;;
42948;SDS011;28587;46.794;23.594;2022-11-20T19:48:45;10.85;;;4.88;;
42948;SDS011;28587;46.794;23.594;2022-11-20T19:53:46;8.68;;;5.30;;
42948;SDS011;28587;46.794;23.594;2022-11-20T19:58:47;9.30;;;5.50;;
42948;SDS011;28587;46.794;23.594;2022-11-20T20:03:48;7.15;;;5.15;;
42948;SDS011;28587;46.794;23.594;2022-11-20T20:08:53;6.93;;;5.10;;
42948;SDS011;28587;46.794;23.594;2022-11-20T20:14:02;7.80;;;3.90;;
42948;SDS011;28587;46.794;23.594;2022-11-20T20:19:04;9.32;;;4.75;;
42948;SDS011;28587;46.794;23.594;2022-11-20T20:24:05;7.25;;;4.90;;
42948;SDS011;28587;46.794;23.594;2022-11-20T20:29:07;10.25;;;4.60;;
42948;SDS011;28587;46.794;23.594;2022-11-20T20:34:07;5.90;;;4.47;;
42948;SDS011;28587;46.794;23.594;2022-11-20T20:39:08;8.88;;;4.90;;
42948;SDS011;28587;46.794;23.594;2022-11-20T20:44:10;6.43;;;4.25;;
42948;SDS011;28587;46.794;23.594;2022-11-20T20:49:31;7.55;;;4.60;;
42948;SDS011;28587;46.794;23.594;2022-11-20T20:54:33;4.68;;;4.13;;
42948;SDS011;28587;46.794;23.594;2022-11-20T20:59:33;6.18;;;4.35;;
42948;SDS011;28587;46.794;23.594;2022-11-20T21:04:34;8.07;;;4.63;;
42948;SDS011;28587;46.794;23.594;2022-11-20T21:09:36;10.48;;;4.82;;
42948;SDS011;28587;46.794;23.594;2022-11-20T21:14:36;7.95;;;4.60;;
42948;SDS011;28587;46.794;23.594;2022-11-20T21:19:37;5.93;;;4.80;;
42948;SDS011;28587;46.794;23.594;2022-11-20T21:24:38;5.75;;;4.70;;
42948;SDS011;28587;46.794;23.594;2022-11-20T21:29:39;7.18;;;5.32;;
42948;SDS011;28587;46.794;23.594;2022-11-20T21:34:40;7.07;;;4.93;;
42948;SDS011;28587;46.794;23.594;2022-11-20T21:39:41;8.98;;;5.50;;
42948;SDS011;28587;46.794;23.594;2022-11-20T21:44:49;7.15;;;5.30;;
42948;SDS011;28587;46.794;23.594;2022-11-20T21:49:50;5.93;;;5.15;;
42948;SDS011;28587;46.794;23.594;2022-11-20T21:54:51;6.38;;;4.70;;
42948;SDS011;28587;46.794;23.594;2022-11-20T21:59:52;7.05;;;4.60;;
42948;SDS011;28587;46.794;23.594;2022-11-20T22:04:53;4.78;;;4.22;;
42948;SDS011;28587;46.794;23.594;2022-11-20T22:09:55;5.10;;;4.32;;
42948;SDS011;28587;46.794;23.594;2022-11-20T22:14:56;6.38;;;4.95;;
42948;SDS011;28587;46.794;23.594;2022-11-20T22:19:56;5.05;;;3.97;;
42948;SDS011;28587;46.794;23.594;2022-11-20T22:24:58;5.60;;;4.70;;
42948;SDS011;28587;46.794;23.594;2022-11-20T22:29:59;5.45;;;4.60;;
42948;SDS011;28587;46.794;23.594;2022-11-20T22:35:00;5.40;;;4.55;;
42948;SDS011;28587;46.794;23.594;2022-11-20T22:40:01;6.32;;;4.40;;
42948;SDS011;28587;46.794;23.594;2022-11-20T22:45:02;6.25;;;4.60;;
42948;SDS011;28587;46.794;23.594;2022-11-20T22:50:04;4.60;;;4.10;;
42948;SDS011;28587;46.794;23.594;2022-11-20T22:55:05;4.53;;;4.05;;
42948;SDS011;28587;46.794;23.594;2022-11-20T23:00:07;4.90;;;4.10;;
42948;SDS011;28587;46.794;23.594;2022-11-20T23:05:08;5.57;;;3.85;;
42948;SDS011;28587;46.794;23.594;2022-11-20T23:10:09;4.88;;;4.25;;
42948;SDS011;28587;46.794;23.594;2022-11-20T23:15:10;4.50;;;4.07;;
42948;SDS011;28587;46.794;23.594;2022-11-20T23:20:11;5.97;;;4.18;;
42948;SDS011;28587;46.794;23.594;2022-11-20T23:25:13;4.13;;;3.70;;
42948;SDS011;28587;46.794;23.594;2022-11-20T23:30:14;5.18;;;4.07;;
42948;SDS011;28587;46.794;23.594;2022-11-20T23:35:15;3.95;;;3.60;;
42948;SDS011;28587;46.794;23.594;2022-11-20T23:40:16;4.28;;;3.65;;
42948;SDS011;28587;46.794;23.594;2022-11-20T23:45:17;5.47;;;3.90;;
42948;SDS011;28587;46.794;23.594;2022-11-20T23:50:18;4.25;;;3.85;;
42948;SDS011;28587;46.794;23.594;2022-11-20T23:55:19;5.18;;;4.03;;
